Terminal Aerodrome Forecast
Issued by NWS

Home | Current Version | Previous Version | Text Only | Print | Product List | Glossary Off
Versions: 1 2 3 4 5 6 7 8 9 10 11 12 13 14 15 16 17 18

000
FTUS43 KMPX 221002 AAA
TAFRNH
TAF AMD
KRNH 221002Z 2210/2306 00000KT 3/4SM BR VCSH FEW005 BKN090
     FM221100 00000KT 2SM BR VCSH FEW005 BKN090
     FM221230 VRB03KT 5SM BR BKN090
     FM222000 31006KT P6SM BKN100
     FM230100 32008KT P6SM OVC020=

USA.gov is the U.S. government's official web portal to all federal, state and local government web resources and services.